sensor_id;sensor_type;location;lat;lon;timestamp;P1;durP1;ratioP1;P2;durP2;ratioP2
57303;SDS011;43150;50.986;18.208;2023-02-22T00:02:04;21.00;;;6.30;;
57303;SDS011;43150;50.986;18.208;2023-02-22T00:04:37;22.40;;;6.60;;
57303;SDS011;43150;50.986;18.208;2023-02-22T00:07:04;23.90;;;6.50;;
57303;SDS011;43150;50.986;18.208;2023-02-22T00:09:30;18.00;;;6.70;;
57303;SDS011;43150;50.986;18.208;2023-02-22T00:11:56;18.70;;;6.40;;
57303;SDS011;43150;50.986;18.208;2023-02-22T00:14:23;20.70;;;6.60;;
57303;SDS011;43150;50.986;18.208;2023-02-22T00:16:52;18.90;;;6.20;;
57303;SDS011;43150;50.986;18.208;2023-02-22T00:19:18;18.00;;;6.90;;
57303;SDS011;43150;50.986;18.208;2023-02-22T00:21:44;22.70;;;8.10;;
57303;SDS011;43150;50.986;18.208;2023-02-22T00:24:09;19.20;;;6.90;;
57303;SDS011;43150;50.986;18.208;2023-02-22T00:26:49;20.90;;;7.00;;
57303;SDS011;43150;50.986;18.208;2023-02-22T00:29:14;19.10;;;7.00;;
57303;SDS011;43150;50.986;18.208;2023-02-22T00:31:40;17.40;;;7.00;;
57303;SDS011;43150;50.986;18.208;2023-02-22T00:34:05;25.80;;;7.40;;
57303;SDS011;43150;50.986;18.208;2023-02-22T00:36:34;21.60;;;7.10;;
57303;SDS011;43150;50.986;18.208;2023-02-22T00:38:59;23.80;;;6.80;;
57303;SDS011;43150;50.986;18.208;2023-02-22T00:41:25;20.10;;;6.50;;
57303;SDS011;43150;50.986;18.208;2023-02-22T00:43:50;26.90;;;8.10;;
57303;SDS011;43150;50.986;18.208;2023-02-22T00:46:16;22.10;;;6.70;;
57303;SDS011;43150;50.986;18.208;2023-02-22T00:48:41;14.60;;;5.40;;
57303;SDS011;43150;50.986;18.208;2023-02-22T00:51:07;18.90;;;6.40;;
57303;SDS011;43150;50.986;18.208;2023-02-22T00:53:32;30.60;;;7.40;;
57303;SDS011;43150;50.986;18.208;2023-02-22T00:55:58;22.40;;;6.00;;
57303;SDS011;43150;50.986;18.208;2023-02-22T00:58:23;19.50;;;6.70;;
57303;SDS011;43150;50.986;18.208;2023-02-22T01:00:51;20.00;;;6.50;;
57303;SDS011;43150;50.986;18.208;2023-02-22T01:03:19;19.10;;;5.70;;
57303;SDS011;43150;50.986;18.208;2023-02-22T01:05:45;18.10;;;5.70;;
57303;SDS011;43150;50.986;18.208;2023-02-22T01:08:12;17.20;;;5.10;;
57303;SDS011;43150;50.986;18.208;2023-02-22T01:10:38;17.10;;;6.10;;
57303;SDS011;43150;50.986;18.208;2023-02-22T01:13:04;24.50;;;7.10;;
57303;SDS011;43150;50.986;18.208;2023-02-22T01:15:33;15.20;;;5.80;;
57303;SDS011;43150;50.986;18.208;2023-02-22T01:17:58;18.80;;;6.20;;
57303;SDS011;43150;50.986;18.208;2023-02-22T01:20:24;20.20;;;7.10;;
57303;SDS011;43150;50.986;18.208;2023-02-22T01:22:51;25.30;;;6.20;;
57303;SDS011;43150;50.986;18.208;2023-02-22T01:25:21;20.50;;;6.30;;
57303;SDS011;43150;50.986;18.208;2023-02-22T01:27:47;13.00;;;5.50;;
57303;SDS011;43150;50.986;18.208;2023-02-22T01:30:14;14.00;;;5.60;;
57303;SDS011;43150;50.986;18.208;2023-02-22T01:32:41;20.40;;;6.50;;
57303;SDS011;43150;50.986;18.208;2023-02-22T01:35:08;17.20;;;6.20;;
57303;SDS011;43150;50.986;18.208;2023-02-22T01:37:34;19.90;;;6.40;;
57303;SDS011;43150;50.986;18.208;2023-02-22T01:40:01;19.20;;;6.10;;
57303;SDS011;43150;50.986;18.208;2023-02-22T01:42:27;18.80;;;7.10;;
57303;SDS011;43150;50.986;18.208;2023-02-22T01:47:38;19.10;;;6.40;;
57303;SDS011;43150;50.986;18.208;2023-02-22T01:50:03;16.90;;;5.80;;
57303;SDS011;43150;50.986;18.208;2023-02-22T01:52:29;19.50;;;6.60;;
57303;SDS011;43150;50.986;18.208;2023-02-22T01:54:56;17.40;;;6.30;;
57303;SDS011;43150;50.986;18.208;2023-02-22T01:57:23;19.90;;;7.10;;
57303;SDS011;43150;50.986;18.208;2023-02-22T01:59:53;20.90;;;7.20;;
57303;SDS011;43150;50.986;18.208;2023-02-22T02:02:21;22.00;;;6.60;;
57303;SDS011;43150;50.986;18.208;2023-02-22T02:04:50;17.90;;;7.60;;
57303;SDS011;43150;50.986;18.208;2023-02-22T02:07:16;16.90;;;7.20;;
57303;SDS011;43150;50.986;18.208;2023-02-22T02:12:08;23.50;;;7.20;;
57303;SDS011;43150;50.986;18.208;2023-02-22T02:14:35;23.20;;;7.30;;
57303;SDS011;43150;50.986;18.208;2023-02-22T02:17:05;23.40;;;6.50;;
57303;SDS011;43150;50.986;18.208;2023-02-22T02:22:18;22.90;;;7.00;;
57303;SDS011;43150;50.986;18.208;2023-02-22T02:27:22;18.30;;;6.60;;
57303;SDS011;43150;50.986;18.208;2023-02-22T02:35:16;19.20;;;6.10;;
57303;SDS011;43150;50.986;18.208;2023-02-22T02:42:42;17.40;;;5.90;;
57303;SDS011;43150;50.986;18.208;2023-02-22T02:45:14;17.00;;;6.30;;
57303;SDS011;43150;50.986;18.208;2023-02-22T02:47:44;26.10;;;6.40;;
57303;SDS011;43150;50.986;18.208;2023-02-22T02:50:21;18.60;;;5.20;;
57303;SDS011;43150;50.986;18.208;2023-02-22T02:52:47;14.80;;;5.20;;
57303;SDS011;43150;50.986;18.208;2023-02-22T02:55:13;17.00;;;5.60;;
57303;SDS011;43150;50.986;18.208;2023-02-22T02:57:39;17.50;;;5.60;;
57303;SDS011;43150;50.986;18.208;2023-02-22T03:00:05;17.00;;;5.80;;
57303;SDS011;43150;50.986;18.208;2023-02-22T03:02:54;12.70;;;5.40;;
57303;SDS011;43150;50.986;18.208;2023-02-22T03:07:54;20.30;;;6.00;;
57303;SDS011;43150;50.986;18.208;2023-02-22T03:15:48;20.50;;;5.90;;
57303;SDS011;43150;50.986;18.208;2023-02-22T03:18:41;17.00;;;5.10;;
57303;SDS011;43150;50.986;18.208;2023-02-22T03:23:31;19.30;;;5.90;;
57303;SDS011;43150;50.986;18.208;2023-02-22T03:26:02;20.10;;;6.30;;
57303;SDS011;43150;50.986;18.208;2023-02-22T03:28:31;15.60;;;5.60;;
57303;SDS011;43150;50.986;18.208;2023-02-22T03:31:04;21.50;;;5.80;;
57303;SDS011;43150;50.986;18.208;2023-02-22T03:33:32;21.40;;;5.80;;
57303;SDS011;43150;50.986;18.208;2023-02-22T03:36:08;19.60;;;5.40;;
57303;SDS011;43150;50.986;18.208;2023-02-22T03:38:36;18.70;;;5.50;;
57303;SDS011;43150;50.986;18.208;2023-02-22T03:41:03;18.60;;;5.70;;
57303;SDS011;43150;50.986;18.208;2023-02-22T03:43:33;18.40;;;5.60;;
57303;SDS011;43150;50.986;18.208;2023-02-22T03:46:01;17.40;;;5.40;;
57303;SDS011;43150;50.986;18.208;2023-02-22T03:48:34;20.20;;;5.60;;
57303;SDS011;43150;50.986;18.208;2023-02-22T03:51:01;26.00;;;6.10;;
57303;SDS011;43150;50.986;18.208;2023-02-22T03:53:29;22.30;;;5.60;;
57303;SDS011;43150;50.986;18.208;2023-02-22T03:55:56;18.00;;;6.60;;
57303;SDS011;43150;50.986;18.208;2023-02-22T03:58:23;14.50;;;5.60;;
57303;SDS011;43150;50.986;18.208;2023-02-22T04:00:51;18.00;;;5.70;;
57303;SDS011;43150;50.986;18.208;2023-02-22T04:03:19;19.30;;;6.00;;
57303;SDS011;43150;50.986;18.208;2023-02-22T04:05:47;20.20;;;6.10;;
57303;SDS011;43150;50.986;18.208;2023-02-22T04:08:12;15.50;;;5.80;;
57303;SDS011;43150;50.986;18.208;2023-02-22T04:10:39;18.90;;;6.60;;
57303;SDS011;43150;50.986;18.208;2023-02-22T04:13:04;15.90;;;5.00;;
57303;SDS011;43150;50.986;18.208;2023-02-22T04:15:31;19.00;;;6.40;;
57303;SDS011;43150;50.986;18.208;2023-02-22T04:17:57;22.20;;;6.30;;
57303;SDS011;43150;50.986;18.208;2023-02-22T04:20:22;22.80;;;5.80;;
57303;SDS011;43150;50.986;18.208;2023-02-22T04:22:53;19.60;;;5.80;;
57303;SDS011;43150;50.986;18.208;2023-02-22T04:25:19;19.60;;;6.10;;
57303;SDS011;43150;50.986;18.208;2023-02-22T04:27:45;15.50;;;5.70;;
57303;SDS011;43150;50.986;18.208;2023-02-22T04:30:10;21.30;;;6.90;;
57303;SDS011;43150;50.986;18.208;2023-02-22T04:32:37;20.00;;;6.30;;
57303;SDS011;43150;50.986;18.208;2023-02-22T04:35:03;17.00;;;5.70;;
57303;SDS011;43150;50.986;18.208;2023-02-22T04:37:29;15.00;;;5.20;;
57303;SDS011;43150;50.986;18.208;2023-02-22T04:39:54;22.30;;;6.60;;
57303;SDS011;43150;50.986;18.208;2023-02-22T04:42:20;21.30;;;5.40;;
57303;SDS011;43150;50.986;18.208;2023-02-22T04:44:45;13.50;;;5.50;;
57303;SDS011;43150;50.986;18.208;2023-02-22T04:47:11;15.60;;;5.00;;
57303;SDS011;43150;50.986;18.208;2023-02-22T04:49:36;18.50;;;5.70;;
57303;SDS011;43150;50.986;18.208;2023-02-22T04:52:02;17.40;;;5.70;;
57303;SDS011;43150;50.986;18.208;2023-02-22T04:54:28;16.80;;;5.30;;
57303;SDS011;43150;50.986;18.208;2023-02-22T04:56:53;18.90;;;5.90;;
57303;SDS011;43150;50.986;18.208;2023-02-22T04:59:19;18.70;;;6.30;;
57303;SDS011;43150;50.986;18.208;2023-02-22T05:01:44;17.90;;;5.50;;
57303;SDS011;43150;50.986;18.208;2023-02-22T05:04:10;17.30;;;5.50;;
57303;SDS011;43150;50.986;18.208;2023-02-22T05:06:36;16.60;;;5.20;;
57303;SDS011;43150;50.986;18.208;2023-02-22T05:09:01;18.80;;;5.40;;
57303;SDS011;43150;50.986;18.208;2023-02-22T05:11:27;15.20;;;5.30;;
57303;SDS011;43150;50.986;18.208;2023-02-22T05:13:53;16.30;;;5.80;;
57303;SDS011;43150;50.986;18.208;2023-02-22T05:16:20;19.30;;;5.70;;
57303;SDS011;43150;50.986;18.208;2023-02-22T05:18:45;17.50;;;5.60;;
57303;SDS011;43150;50.986;18.208;2023-02-22T05:21:12;18.90;;;5.90;;
57303;SDS011;43150;50.986;18.208;2023-02-22T05:23:38;18.50;;;6.10;;
57303;SDS011;43150;50.986;18.208;2023-02-22T05:26:03;16.70;;;5.50;;
57303;SDS011;43150;50.986;18.208;2023-02-22T05:28:31;18.90;;;5.80;;
57303;SDS011;43150;50.986;18.208;2023-02-22T05:30:57;16.10;;;5.30;;
57303;SDS011;43150;50.986;18.208;2023-02-22T05:33:22;16.60;;;5.90;;
57303;SDS011;43150;50.986;18.208;2023-02-22T05:35:48;16.90;;;4.90;;
57303;SDS011;43150;50.986;18.208;2023-02-22T05:38:15;14.80;;;5.30;;
57303;SDS011;43150;50.986;18.208;2023-02-22T05:40:41;15.60;;;5.40;;
57303;SDS011;43150;50.986;18.208;2023-02-22T05:43:06;15.80;;;5.40;;
57303;SDS011;43150;50.986;18.208;2023-02-22T05:45:33;18.00;;;6.60;;
57303;SDS011;43150;50.986;18.208;2023-02-22T05:47:59;16.70;;;5.60;;
57303;SDS011;43150;50.986;18.208;2023-02-22T05:50:24;21.50;;;6.80;;
57303;SDS011;43150;50.986;18.208;2023-02-22T05:52:50;19.50;;;7.00;;
57303;SDS011;43150;50.986;18.208;2023-02-22T05:55:16;24.10;;;7.60;;
57303;SDS011;43150;50.986;18.208;2023-02-22T05:57:43;52.90;;;16.60;;
57303;SDS011;43150;50.986;18.208;2023-02-22T06:00:09;34.40;;;13.10;;
57303;SDS011;43150;50.986;18.208;2023-02-22T06:02:35;35.80;;;14.10;;
57303;SDS011;43150;50.986;18.208;2023-02-22T06:05:01;33.40;;;14.50;;
57303;SDS011;43150;50.986;18.208;2023-02-22T06:07:27;34.20;;;12.40;;
57303;SDS011;43150;50.986;18.208;2023-02-22T06:09:53;33.60;;;12.60;;
57303;SDS011;43150;50.986;18.208;2023-02-22T06:12:18;30.90;;;12.40;;
57303;SDS011;43150;50.986;18.208;2023-02-22T06:14:44;31.50;;;11.90;;
57303;SDS011;43150;50.986;18.208;2023-02-22T06:17:11;28.90;;;14.00;;
57303;SDS011;43150;50.986;18.208;2023-02-22T06:19:37;26.10;;;10.50;;
57303;SDS011;43150;50.986;18.208;2023-02-22T06:22:04;28.10;;;12.90;;
57303;SDS011;43150;50.986;18.208;2023-02-22T06:24:30;24.80;;;11.10;;
57303;SDS011;43150;50.986;18.208;2023-02-22T06:26:57;27.30;;;10.10;;
57303;SDS011;43150;50.986;18.208;2023-02-22T06:29:23;26.10;;;11.20;;
57303;SDS011;43150;50.986;18.208;2023-02-22T06:31:49;37.40;;;16.50;;
57303;SDS011;43150;50.986;18.208;2023-02-22T06:34:26;37.80;;;16.30;;
57303;SDS011;43150;50.986;18.208;2023-02-22T06:36:54;31.10;;;14.00;;
57303;SDS011;43150;50.986;18.208;2023-02-22T06:39:20;37.90;;;14.60;;
57303;SDS011;43150;50.986;18.208;2023-02-22T06:41:45;38.50;;;14.80;;
57303;SDS011;43150;50.986;18.208;2023-02-22T06:44:12;36.60;;;14.30;;
57303;SDS011;43150;50.986;18.208;2023-02-22T06:46:38;28.30;;;13.20;;
57303;SDS011;43150;50.986;18.208;2023-02-22T06:49:04;35.40;;;17.90;;
57303;SDS011;43150;50.986;18.208;2023-02-22T06:51:29;43.00;;;15.30;;
57303;SDS011;43150;50.986;18.208;2023-02-22T06:53:55;35.30;;;16.00;;
57303;SDS011;43150;50.986;18.208;2023-02-22T06:56:21;39.30;;;19.00;;
57303;SDS011;43150;50.986;18.208;2023-02-22T06:58:46;53.60;;;21.80;;
57303;SDS011;43150;50.986;18.208;2023-02-22T07:01:13;39.80;;;20.30;;
57303;SDS011;43150;50.986;18.208;2023-02-22T07:03:39;43.30;;;19.50;;
57303;SDS011;43150;50.986;18.208;2023-02-22T07:06:05;43.20;;;17.70;;
57303;SDS011;43150;50.986;18.208;2023-02-22T07:08:31;43.20;;;20.90;;
57303;SDS011;43150;50.986;18.208;2023-02-22T07:10:56;62.30;;;28.70;;
57303;SDS011;43150;50.986;18.208;2023-02-22T07:13:22;49.10;;;25.50;;
57303;SDS011;43150;50.986;18.208;2023-02-22T07:15:48;52.80;;;26.40;;
57303;SDS011;43150;50.986;18.208;2023-02-22T07:18:16;48.70;;;24.90;;
57303;SDS011;43150;50.986;18.208;2023-02-22T07:20:42;54.40;;;24.20;;
57303;SDS011;43150;50.986;18.208;2023-02-22T07:23:08;52.50;;;24.90;;
57303;SDS011;43150;50.986;18.208;2023-02-22T07:25:33;62.70;;;28.30;;
57303;SDS011;43150;50.986;18.208;2023-02-22T07:27:59;48.00;;;23.40;;
57303;SDS011;43150;50.986;18.208;2023-02-22T07:30:26;52.70;;;33.80;;
57303;SDS011;43150;50.986;18.208;2023-02-22T07:32:55;53.30;;;23.80;;
57303;SDS011;43150;50.986;18.208;2023-02-22T07:35:54;42.20;;;20.50;;
57303;SDS011;43150;50.986;18.208;2023-02-22T07:38:13;38.50;;;20.00;;
57303;SDS011;43150;50.986;18.208;2023-02-22T07:40:39;41.50;;;19.50;;
57303;SDS011;43150;50.986;18.208;2023-02-22T07:43:21;37.90;;;18.20;;
57303;SDS011;43150;50.986;18.208;2023-02-22T07:45:47;37.60;;;18.50;;
57303;SDS011;43150;50.986;18.208;2023-02-22T07:48:14;41.20;;;24.20;;
57303;SDS011;43150;50.986;18.208;2023-02-22T07:50:40;41.20;;;26.20;;
57303;SDS011;43150;50.986;18.208;2023-02-22T07:53:07;80.70;;;44.80;;
57303;SDS011;43150;50.986;18.208;2023-02-22T07:55:35;37.70;;;22.30;;
57303;SDS011;43150;50.986;18.208;2023-02-22T07:58:02;33.10;;;19.80;;
57303;SDS011;43150;50.986;18.208;2023-02-22T08:00:29;30.70;;;17.40;;
57303;SDS011;43150;50.986;18.208;2023-02-22T08:02:56;32.70;;;18.80;;
57303;SDS011;43150;50.986;18.208;2023-02-22T08:05:23;32.80;;;18.00;;
57303;SDS011;43150;50.986;18.208;2023-02-22T08:07:49;36.50;;;24.70;;
57303;SDS011;43150;50.986;18.208;2023-02-22T08:10:16;53.20;;;33.90;;
57303;SDS011;43150;50.986;18.208;2023-02-22T08:12:42;65.40;;;43.00;;
57303;SDS011;43150;50.986;18.208;2023-02-22T08:15:08;55.70;;;39.60;;
57303;SDS011;43150;50.986;18.208;2023-02-22T08:17:34;50.80;;;33.80;;
57303;SDS011;43150;50.986;18.208;2023-02-22T08:20:01;44.90;;;30.50;;
57303;SDS011;43150;50.986;18.208;2023-02-22T08:22:27;39.40;;;25.40;;
57303;SDS011;43150;50.986;18.208;2023-02-22T08:24:53;33.40;;;21.60;;
57303;SDS011;43150;50.986;18.208;2023-02-22T08:27:37;35.30;;;21.60;;
57303;SDS011;43150;50.986;18.208;2023-02-22T08:30:09;29.80;;;17.60;;
57303;SDS011;43150;50.986;18.208;2023-02-22T08:32:39;23.70;;;13.20;;
57303;SDS011;43150;50.986;18.208;2023-02-22T08:35:05;33.10;;;18.50;;
57303;SDS011;43150;50.986;18.208;2023-02-22T08:37:30;30.90;;;18.30;;
57303;SDS011;43150;50.986;18.208;2023-02-22T08:39:56;27.40;;;16.20;;
57303;SDS011;43150;50.986;18.208;2023-02-22T08:42:22;27.00;;;17.10;;
57303;SDS011;43150;50.986;18.208;2023-02-22T08:44:48;29.50;;;18.50;;
57303;SDS011;43150;50.986;18.208;2023-02-22T08:47:14;30.80;;;17.50;;
57303;SDS011;43150;50.986;18.208;2023-02-22T08:49:39;30.40;;;16.80;;
57303;SDS011;43150;50.986;18.208;2023-02-22T08:52:07;22.60;;;13.50;;
57303;SDS011;43150;50.986;18.208;2023-02-22T08:54:32;25.10;;;11.70;;
57303;SDS011;43150;50.986;18.208;2023-02-22T08:56:58;24.10;;;11.70;;
57303;SDS011;43150;50.986;18.208;2023-02-22T08:59:24;23.50;;;13.00;;
57303;SDS011;43150;50.986;18.208;2023-02-22T09:01:50;24.30;;;11.30;;
57303;SDS011;43150;50.986;18.208;2023-02-22T09:04:16;19.90;;;11.30;;
57303;SDS011;43150;50.986;18.208;2023-02-22T09:06:41;19.70;;;8.60;;
57303;SDS011;43150;50.986;18.208;2023-02-22T09:09:08;22.80;;;10.50;;
57303;SDS011;43150;50.986;18.208;2023-02-22T09:11:39;24.80;;;10.70;;
57303;SDS011;43150;50.986;18.208;2023-02-22T09:14:04;20.40;;;11.10;;
57303;SDS011;43150;50.986;18.208;2023-02-22T09:16:30;26.40;;;17.70;;
57303;SDS011;43150;50.986;18.208;2023-02-22T09:18:55;25.40;;;17.80;;
57303;SDS011;43150;50.986;18.208;2023-02-22T09:21:27;22.40;;;15.10;;
57303;SDS011;43150;50.986;18.208;2023-02-22T09:23:53;24.20;;;13.60;;
57303;SDS011;43150;50.986;18.208;2023-02-22T09:26:19;33.00;;;20.90;;
57303;SDS011;43150;50.986;18.208;2023-02-22T09:28:48;22.80;;;10.80;;
57303;SDS011;43150;50.986;18.208;2023-02-22T09:31:14;16.30;;;5.70;;
57303;SDS011;43150;50.986;18.208;2023-02-22T09:33:39;13.00;;;4.90;;
57303;SDS011;43150;50.986;18.208;2023-02-22T09:36:05;15.30;;;5.70;;
57303;SDS011;43150;50.986;18.208;2023-02-22T09:38:31;14.00;;;5.90;;
57303;SDS011;43150;50.986;18.208;2023-02-22T09:41:05;13.40;;;4.90;;
57303;SDS011;43150;50.986;18.208;2023-02-22T09:46:39;17.00;;;6.50;;
57303;SDS011;43150;50.986;18.208;2023-02-22T09:49:20;16.90;;;6.20;;
57303;SDS011;43150;50.986;18.208;2023-02-22T09:51:48;16.10;;;6.50;;
57303;SDS011;43150;50.986;18.208;2023-02-22T09:54:20;13.20;;;5.00;;
57303;SDS011;43150;50.986;18.208;2023-02-22T09:59:14;9.80;;;3.60;;
57303;SDS011;43150;50.986;18.208;2023-02-22T10:01:44;11.60;;;3.60;;
57303;SDS011;43150;50.986;18.208;2023-02-22T10:06:58;9.80;;;3.40;;
57303;SDS011;43150;50.986;18.208;2023-02-22T10:09:30;33.90;;;21.50;;
57303;SDS011;43150;50.986;18.208;2023-02-22T10:11:57;15.60;;;7.20;;
57303;SDS011;43150;50.986;18.208;2023-02-22T10:24:31;7.50;;;3.20;;
57303;SDS011;43150;50.986;18.208;2023-02-22T10:27:03;9.00;;;3.10;;
57303;SDS011;43150;50.986;18.208;2023-02-22T10:29:34;10.50;;;4.70;;
57303;SDS011;43150;50.986;18.208;2023-02-22T10:32:04;10.50;;;3.50;;
57303;SDS011;43150;50.986;18.208;2023-02-22T10:34:37;8.30;;;3.10;;
57303;SDS011;43150;50.986;18.208;2023-02-22T10:37:16;11.80;;;3.80;;
57303;SDS011;43150;50.986;18.208;2023-02-22T10:39:43;8.00;;;3.00;;
57303;SDS011;43150;50.986;18.208;2023-02-22T10:42:10;10.20;;;3.40;;
57303;SDS011;43150;50.986;18.208;2023-02-22T10:44:37;12.40;;;4.00;;
57303;SDS011;43150;50.986;18.208;2023-02-22T10:47:10;11.60;;;3.40;;
57303;SDS011;43150;50.986;18.208;2023-02-22T10:49:40;10.10;;;3.10;;
57303;SDS011;43150;50.986;18.208;2023-02-22T10:52:24;10.70;;;3.80;;
57303;SDS011;43150;50.986;18.208;2023-02-22T10:54:53;12.20;;;3.70;;
57303;SDS011;43150;50.986;18.208;2023-02-22T10:57:24;14.00;;;3.90;;
57303;SDS011;43150;50.986;18.208;2023-02-22T10:59:50;11.20;;;3.50;;
57303;SDS011;43150;50.986;18.208;2023-02-22T11:02:29;10.10;;;3.70;;
57303;SDS011;43150;50.986;18.208;2023-02-22T11:04:56;9.70;;;3.20;;
57303;SDS011;43150;50.986;18.208;2023-02-22T11:07:24;9.50;;;2.90;;
57303;SDS011;43150;50.986;18.208;2023-02-22T11:09:55;13.10;;;3.40;;
57303;SDS011;43150;50.986;18.208;2023-02-22T11:12:34;11.30;;;3.70;;
57303;SDS011;43150;50.986;18.208;2023-02-22T11:17:50;11.10;;;4.50;;
57303;SDS011;43150;50.986;18.208;2023-02-22T11:20:19;15.50;;;4.70;;
57303;SDS011;43150;50.986;18.208;2023-02-22T11:22:53;11.50;;;3.90;;
57303;SDS011;43150;50.986;18.208;2023-02-22T11:25:22;13.40;;;4.00;;
57303;SDS011;43150;50.986;18.208;2023-02-22T11:27:50;10.40;;;3.60;;
57303;SDS011;43150;50.986;18.208;2023-02-22T11:37:52;12.60;;;3.50;;
57303;SDS011;43150;50.986;18.208;2023-02-22T11:40:19;10.00;;;3.10;;
57303;SDS011;43150;50.986;18.208;2023-02-22T11:42:47;8.70;;;2.90;;
57303;SDS011;43150;50.986;18.208;2023-02-22T11:45:17;12.00;;;3.80;;
57303;SDS011;43150;50.986;18.208;2023-02-22T11:47:52;9.70;;;3.00;;
57303;SDS011;43150;50.986;18.208;2023-02-22T11:50:38;9.60;;;3.20;;
57303;SDS011;43150;50.986;18.208;2023-02-22T11:53:10;10.40;;;3.70;;
57303;SDS011;43150;50.986;18.208;2023-02-22T11:58:33;11.60;;;3.60;;
57303;SDS011;43150;50.986;18.208;2023-02-22T12:06:30;9.50;;;3.20;;
57303;SDS011;43150;50.986;18.208;2023-02-22T12:09:07;9.60;;;3.10;;
57303;SDS011;43150;50.986;18.208;2023-02-22T12:11:38;8.90;;;3.00;;
57303;SDS011;43150;50.986;18.208;2023-02-22T12:14:10;12.50;;;4.10;;
57303;SDS011;43150;50.986;18.208;2023-02-22T12:19:36;10.30;;;4.10;;
57303;SDS011;43150;50.986;18.208;2023-02-22T12:22:12;10.80;;;4.50;;
57303;SDS011;43150;50.986;18.208;2023-02-22T12:24:41;10.20;;;3.50;;
57303;SDS011;43150;50.986;18.208;2023-02-22T12:27:13;11.90;;;3.80;;
57303;SDS011;43150;50.986;18.208;2023-02-22T12:29:42;13.20;;;3.90;;
57303;SDS011;43150;50.986;18.208;2023-02-22T12:34:36;13.60;;;3.90;;
57303;SDS011;43150;50.986;18.208;2023-02-22T12:37:09;9.90;;;3.40;;
57303;SDS011;43150;50.986;18.208;2023-02-22T12:39:52;11.60;;;4.10;;
57303;SDS011;43150;50.986;18.208;2023-02-22T12:42:25;11.40;;;3.70;;
57303;SDS011;43150;50.986;18.208;2023-02-22T12:45:02;11.90;;;4.50;;
57303;SDS011;43150;50.986;18.208;2023-02-22T12:47:36;12.50;;;4.70;;
57303;SDS011;43150;50.986;18.208;2023-02-22T12:50:11;12.30;;;3.70;;
57303;SDS011;43150;50.986;18.208;2023-02-22T12:52:45;9.20;;;3.30;;
57303;SDS011;43150;50.986;18.208;2023-02-22T12:58:14;11.90;;;3.50;;
57303;SDS011;43150;50.986;18.208;2023-02-22T13:00:40;10.50;;;4.10;;
57303;SDS011;43150;50.986;18.208;2023-02-22T13:05:59;12.50;;;4.00;;
57303;SDS011;43150;50.986;18.208;2023-02-22T13:18:52;12.80;;;3.80;;
57303;SDS011;43150;50.986;18.208;2023-02-22T13:26:34;13.40;;;6.10;;
57303;SDS011;43150;50.986;18.208;2023-02-22T13:36:56;10.60;;;4.00;;
57303;SDS011;43150;50.986;18.208;2023-02-22T13:52:07;14.30;;;4.10;;
57303;SDS011;43150;50.986;18.208;2023-02-22T13:54:50;14.40;;;4.60;;
57303;SDS011;43150;50.986;18.208;2023-02-22T13:57:28;11.60;;;4.40;;
57303;SDS011;43150;50.986;18.208;2023-02-22T14:13:28;13.60;;;5.10;;
57303;SDS011;43150;50.986;18.208;2023-02-22T14:18:29;9.80;;;3.90;;
57303;SDS011;43150;50.986;18.208;2023-02-22T14:21:06;14.20;;;4.80;;
57303;SDS011;43150;50.986;18.208;2023-02-22T14:31:04;13.20;;;4.70;;
57303;SDS011;43150;50.986;18.208;2023-02-22T14:33:50;13.60;;;4.90;;
57303;SDS011;43150;50.986;18.208;2023-02-22T14:36:18;14.00;;;5.50;;
57303;SDS011;43150;50.986;18.208;2023-02-22T14:38:48;11.60;;;2.80;;
57303;SDS011;43150;50.986;18.208;2023-02-22T14:41:14;10.50;;;3.70;;
57303;SDS011;43150;50.986;18.208;2023-02-22T14:43:41;12.90;;;3.80;;
57303;SDS011;43150;50.986;18.208;2023-02-22T14:46:09;10.90;;;4.20;;
57303;SDS011;43150;50.986;18.208;2023-02-22T14:48:39;13.40;;;4.50;;
57303;SDS011;43150;50.986;18.208;2023-02-22T14:51:26;12.00;;;4.70;;
57303;SDS011;43150;50.986;18.208;2023-02-22T14:54:05;8.90;;;2.60;;
57303;SDS011;43150;50.986;18.208;2023-02-22T14:59:21;14.80;;;4.70;;
57303;SDS011;43150;50.986;18.208;2023-02-22T15:01:48;8.60;;;2.00;;
57303;SDS011;43150;50.986;18.208;2023-02-22T15:04:21;13.20;;;4.70;;
57303;SDS011;43150;50.986;18.208;2023-02-22T15:06:48;14.60;;;5.30;;
57303;SDS011;43150;50.986;18.208;2023-02-22T15:11:40;15.70;;;4.40;;
57303;SDS011;43150;50.986;18.208;2023-02-22T15:14:13;12.30;;;2.90;;
57303;SDS011;43150;50.986;18.208;2023-02-22T15:16:39;7.90;;;2.10;;
57303;SDS011;43150;50.986;18.208;2023-02-22T15:19:10;11.20;;;4.40;;
57303;SDS011;43150;50.986;18.208;2023-02-22T15:21:36;11.40;;;3.10;;
57303;SDS011;43150;50.986;18.208;2023-02-22T15:24:17;10.20;;;3.20;;
57303;SDS011;43150;50.986;18.208;2023-02-22T15:26:45;11.30;;;3.20;;
57303;SDS011;43150;50.986;18.208;2023-02-22T15:31:41;11.90;;;6.30;;
57303;SDS011;43150;50.986;18.208;2023-02-22T15:36:43;10.10;;;3.60;;
57303;SDS011;43150;50.986;18.208;2023-02-22T15:41:39;11.60;;;3.70;;
57303;SDS011;43150;50.986;18.208;2023-02-22T15:44:06;9.80;;;3.60;;
57303;SDS011;43150;50.986;18.208;2023-02-22T15:46:32;11.30;;;3.60;;
57303;SDS011;43150;50.986;18.208;2023-02-22T15:51:39;9.40;;;3.80;;
57303;SDS011;43150;50.986;18.208;2023-02-22T15:54:06;11.60;;;3.30;;
57303;SDS011;43150;50.986;18.208;2023-02-22T15:56:39;10.80;;;3.80;;
57303;SDS011;43150;50.986;18.208;2023-02-22T15:59:10;13.80;;;3.70;;
57303;SDS011;43150;50.986;18.208;2023-02-22T16:01:37;9.20;;;3.90;;
57303;SDS011;43150;50.986;18.208;2023-02-22T16:04:04;12.70;;;6.00;;
57303;SDS011;43150;50.986;18.208;2023-02-22T16:06:31;16.30;;;4.40;;
57303;SDS011;43150;50.986;18.208;2023-02-22T16:09:10;13.40;;;3.90;;
57303;SDS011;43150;50.986;18.208;2023-02-22T16:11:37;11.10;;;3.20;;
57303;SDS011;43150;50.986;18.208;2023-02-22T16:14:24;11.90;;;3.60;;
57303;SDS011;43150;50.986;18.208;2023-02-22T16:17:08;11.30;;;3.80;;
57303;SDS011;43150;50.986;18.208;2023-02-22T16:19:44;8.20;;;3.30;;
57303;SDS011;43150;50.986;18.208;2023-02-22T16:22:22;11.10;;;4.10;;
57303;SDS011;43150;50.986;18.208;2023-02-22T16:24:51;9.10;;;3.70;;
57303;SDS011;43150;50.986;18.208;2023-02-22T16:27:20;12.20;;;3.90;;
57303;SDS011;43150;50.986;18.208;2023-02-22T16:30:16;14.90;;;4.60;;
57303;SDS011;43150;50.986;18.208;2023-02-22T16:32:32;9.80;;;3.80;;
57303;SDS011;43150;50.986;18.208;2023-02-22T16:34:57;13.20;;;4.30;;
57303;SDS011;43150;50.986;18.208;2023-02-22T16:37:23;18.10;;;5.10;;
57303;SDS011;43150;50.986;18.208;2023-02-22T16:39:49;10.00;;;4.70;;
57303;SDS011;43150;50.986;18.208;2023-02-22T16:42:18;13.00;;;5.30;;
57303;SDS011;43150;50.986;18.208;2023-02-22T16:44:51;14.40;;;5.90;;
57303;SDS011;43150;50.986;18.208;2023-02-22T16:47:17;21.10;;;8.20;;
57303;SDS011;43150;50.986;18.208;2023-02-22T16:49:43;27.20;;;12.10;;
57303;SDS011;43150;50.986;18.208;2023-02-22T16:52:09;43.50;;;17.40;;
57303;SDS011;43150;50.986;18.208;2023-02-22T16:54:42;29.90;;;12.10;;
57303;SDS011;43150;50.986;18.208;2023-02-22T16:57:09;35.40;;;14.80;;
57303;SDS011;43150;50.986;18.208;2023-02-22T16:59:37;26.30;;;11.90;;
57303;SDS011;43150;50.986;18.208;2023-02-22T17:02:04;18.00;;;8.50;;